createdAt,value
2023-09-08T00:01:00.218Z,6.80
2023-09-08T00:03:27.832Z,10.63
2023-09-08T00:05:55.398Z,13.05
2023-09-08T00:08:25.072Z,6.60
2023-09-08T00:10:52.690Z,15.45
2023-09-08T00:13:20.369Z,12.15
2023-09-08T00:15:47.952Z,8.30
2023-09-08T00:18:15.590Z,9.05
2023-09-08T00:20:43.905Z,14.13
2023-09-08T00:23:11.556Z,9.43
2023-09-08T00:25:40.478Z,8.27
2023-09-08T00:28:08.797Z,9.45
2023-09-08T00:30:36.366Z,8.35
2023-09-08T00:33:04.046Z,8.35
2023-09-08T00:35:31.678Z,7.55
2023-09-08T00:37:59.234Z,9.70
2023-09-08T00:40:28.522Z,11.32
2023-09-08T00:42:57.471Z,9.32
2023-09-08T00:45:25.290Z,8.18
2023-09-08T00:47:53.062Z,7.75
2023-09-08T00:50:20.988Z,9.75
2023-09-08T00:52:48.614Z,10.60
2023-09-08T00:55:16.636Z,7.75
2023-09-08T00:57:44.311Z,11.18
2023-09-08T01:00:15.147Z,8.93
2023-09-08T01:02:44.491Z,7.35
2023-09-08T01:05:12.205Z,8.65
2023-09-08T01:07:40.024Z,11.98
2023-09-08T01:10:08.527Z,8.27
2023-09-08T01:12:36.893Z,8.32
2023-09-08T01:15:05.408Z,8.32
2023-09-08T01:17:34.404Z,10.00
2023-09-08T01:20:06.537Z,7.70
2023-09-08T01:23:04.143Z,7.75
2023-09-08T01:25:34.791Z,9.43
2023-09-08T01:28:03.551Z,8.13
2023-09-08T01:30:34.217Z,8.43
2023-09-08T01:33:02.680Z,8.18
2023-09-08T01:35:30.718Z,8.02
2023-09-08T01:37:58.757Z,10.65
2023-09-08T01:40:26.358Z,9.90
2023-09-08T01:42:55.384Z,9.75
2023-09-08T01:45:23.121Z,9.20
2023-09-08T01:47:50.842Z,8.75
2023-09-08T01:50:22.743Z,9.13
2023-09-08T01:52:50.889Z,8.80
2023-09-08T01:55:18.513Z,9.48
2023-09-08T01:57:47.654Z,13.18
2023-09-08T02:00:17.290Z,9.43
2023-09-08T02:02:45.071Z,10.05
2023-09-08T02:05:14.206Z,9.35
2023-09-08T02:07:43.608Z,8.63
2023-09-08T02:10:13.039Z,7.57
2023-09-08T02:12:41.947Z,7.25
2023-09-08T02:15:12.965Z,7.18
2023-09-08T02:17:43.478Z,9.38
2023-09-08T02:20:13.119Z,11.55
2023-09-08T02:22:41.905Z,7.55
2023-09-08T02:25:11.114Z,7.00
2023-09-08T02:27:40.752Z,8.65
2023-09-08T02:30:10.879Z,8.35
2023-09-08T02:32:39.899Z,9.73
2023-09-08T02:35:11.293Z,8.45
2023-09-08T02:37:40.252Z,10.93
2023-09-08T02:40:09.874Z,8.13
2023-09-08T02:42:38.856Z,9.13
2023-09-08T02:45:08.299Z,7.65
2023-09-08T02:47:37.254Z,9.07
2023-09-08T02:50:06.209Z,8.93
2023-09-08T02:52:36.490Z,9.52
2023-09-08T02:55:05.559Z,6.88
2023-09-08T02:57:34.448Z,7.40
2023-09-08T03:00:04.171Z,7.72
2023-09-08T03:02:33.822Z,8.40
2023-09-08T03:05:03.072Z,10.45
2023-09-08T03:07:32.060Z,11.02
2023-09-08T03:10:02.209Z,8.90
2023-09-08T03:12:31.331Z,9.18
2023-09-08T03:14:59.953Z,9.68
2023-09-08T03:17:29.143Z,7.70
2023-09-08T03:19:58.446Z,7.60
2023-09-08T03:22:27.528Z,7.97
2023-09-08T03:24:56.261Z,7.85
2023-09-08T03:27:26.633Z,9.80
2023-09-08T03:29:55.777Z,9.43
2023-09-08T03:32:24.702Z,12.02
2023-09-08T03:34:53.796Z,9.13
2023-09-08T03:37:23.550Z,7.88
2023-09-08T03:39:52.420Z,9.07
2023-09-08T03:42:21.024Z,7.43
2023-09-08T03:44:51.014Z,7.43
2023-09-08T03:47:19.739Z,10.35
2023-09-08T03:49:48.543Z,8.23
2023-09-08T03:52:17.716Z,9.05
2023-09-08T03:54:47.903Z,11.25
2023-09-08T03:57:17.092Z,13.57
2023-09-08T03:59:47.651Z,16.08
2023-09-08T04:02:18.026Z,12.73
2023-09-08T04:04:46.776Z,10.60
2023-09-08T04:07:15.752Z,10.95
2023-09-08T04:09:44.674Z,9.18
2023-09-08T04:12:13.717Z,12.45
2023-09-08T04:14:42.866Z,8.73
2023-09-08T04:17:11.908Z,9.60
2023-09-08T04:19:42.223Z,10.30
2023-09-08T04:22:11.263Z,10.73
2023-09-08T04:24:41.112Z,10.80
2023-09-08T04:27:13.774Z,9.52
2023-09-08T04:29:44.797Z,7.25
2023-09-08T04:32:13.904Z,8.40
2023-09-08T04:34:44.981Z,8.98
2023-09-08T04:37:13.881Z,12.30
2023-09-08T04:39:43.037Z,7.68
2023-09-08T04:42:12.009Z,11.63
2023-09-08T04:44:41.174Z,9.60
2023-09-08T04:47:10.479Z,6.63
2023-09-08T04:49:39.806Z,9.50
2023-09-08T04:52:10.243Z,8.27
2023-09-08T04:54:39.078Z,9.00
2023-09-08T04:57:21.968Z,9.25
2023-09-08T04:59:52.364Z,12.52
2023-09-08T05:02:24.291Z,6.07
2023-09-08T05:04:54.192Z,7.10
2023-09-08T05:07:27.408Z,6.53
2023-09-08T05:09:57.936Z,9.55
2023-09-08T05:12:27.017Z,11.75
2023-09-08T05:15:01.143Z,14.15
2023-09-08T05:17:30.297Z,9.52
2023-09-08T05:19:59.054Z,10.38
2023-09-08T05:22:29.106Z,6.20
2023-09-08T05:24:57.937Z,11.55
2023-09-08T05:27:26.796Z,6.57
2023-09-08T05:29:55.957Z,7.78
2023-09-08T05:32:25.339Z,7.40
2023-09-08T05:34:54.529Z,8.88
2023-09-08T05:37:23.562Z,7.72
2023-09-08T05:39:53.949Z,8.90
2023-09-08T05:42:23.072Z,5.82
2023-09-08T05:44:52.052Z,5.78
2023-09-08T05:47:20.936Z,7.40
2023-09-08T05:49:50.233Z,7.03
2023-09-08T05:52:19.663Z,8.43
2023-09-08T05:54:48.920Z,9.20
2023-09-08T05:57:19.229Z,9.45
2023-09-08T05:59:49.270Z,8.55
2023-09-08T06:02:18.044Z,8.13
2023-09-08T06:04:47.063Z,9.57
2023-09-08T06:07:16.032Z,8.80
2023-09-08T06:09:45.000Z,7.20
2023-09-08T06:12:13.828Z,11.23
2023-09-08T06:14:46.383Z,7.72
2023-09-08T06:17:15.621Z,7.47
2023-09-08T06:19:45.143Z,11.10
2023-09-08T06:22:14.440Z,8.95
2023-09-08T06:24:44.692Z,9.38
2023-09-08T06:27:14.582Z,6.03
2023-09-08T06:29:45.543Z,8.43
2023-09-08T06:32:14.764Z,9.95
2023-09-08T06:34:45.219Z,6.43
2023-09-08T06:37:14.954Z,7.97
2023-09-08T06:39:44.700Z,5.78
2023-09-08T06:42:14.506Z,5.78
2023-09-08T06:44:45.385Z,7.72
2023-09-08T06:47:15.156Z,5.45
2023-09-08T06:49:44.986Z,5.78
2023-09-08T06:52:14.653Z,5.68
2023-09-08T06:54:45.006Z,7.55
2023-09-08T06:57:14.379Z,5.72
2023-09-08T06:59:45.853Z,7.03
2023-09-08T07:02:25.194Z,6.00
2023-09-08T07:04:54.586Z,5.03
2023-09-08T07:07:25.306Z,5.63
2023-09-08T07:09:54.199Z,6.50
2023-09-08T07:12:29.761Z,8.05
2023-09-08T07:15:02.556Z,5.18
2023-09-08T07:17:38.003Z,6.47
2023-09-08T07:20:10.369Z,5.30
2023-09-08T07:25:15.341Z,4.47
2023-09-08T07:27:50.851Z,5.20
2023-09-08T07:30:27.578Z,5.45
2023-09-08T07:33:02.838Z,6.07
2023-09-08T07:35:55.352Z,6.40
2023-09-08T07:38:40.669Z,6.35
2023-09-08T07:41:20.084Z,6.88
2023-09-08T07:44:34.189Z,5.60
2023-09-08T07:47:56.666Z,6.47
2023-09-08T07:50:45.612Z,5.95
2023-09-08T07:56:22.997Z,7.00
2023-09-08T07:58:54.019Z,4.75
2023-09-08T08:04:20.796Z,5.53
2023-09-08T08:06:50.461Z,5.25
2023-09-08T08:09:18.154Z,5.90
2023-09-08T08:11:45.949Z,5.47
2023-09-08T08:14:13.568Z,5.35
2023-09-08T08:16:41.187Z,5.57
2023-09-08T08:19:08.865Z,5.07
2023-09-08T08:21:38.594Z,4.38
2023-09-08T08:24:06.965Z,4.72
2023-09-08T08:26:34.568Z,5.43
2023-09-08T08:29:02.075Z,5.43
2023-09-08T08:31:29.880Z,5.93
2023-09-08T08:33:57.497Z,7.38
2023-09-08T08:36:25.119Z,4.63
2023-09-08T08:38:54.103Z,4.35
2023-09-08T08:41:21.797Z,5.05
2023-09-08T08:43:50.589Z,4.80
2023-09-08T08:46:21.746Z,4.45
2023-09-08T08:48:50.682Z,5.75
2023-09-08T08:51:20.116Z,6.38
2023-09-08T08:53:47.664Z,3.85
2023-09-08T08:56:18.320Z,4.00
2023-09-08T08:58:46.516Z,3.85
2023-09-08T09:01:14.691Z,4.03
2023-09-08T09:03:43.961Z,6.22
2023-09-08T09:06:12.242Z,6.53
2023-09-08T09:08:41.685Z,9.23
2023-09-08T09:11:09.283Z,6.63
2023-09-08T09:13:38.424Z,4.97
2023-09-08T09:16:11.446Z,4.40
2023-09-08T09:18:56.310Z,3.75
2023-09-08T09:21:24.262Z,3.05
2023-09-08T09:23:52.162Z,3.78
2023-09-08T09:26:27.291Z,4.30
2023-09-08T09:28:56.297Z,4.93
2023-09-08T09:31:27.440Z,3.58
2023-09-08T09:34:06.493Z,3.95
2023-09-08T09:36:34.207Z,5.35
2023-09-08T09:39:02.263Z,4.35
2023-09-08T09:41:31.468Z,5.05
2023-09-08T09:44:00.447Z,3.92
2023-09-08T09:46:30.386Z,3.90
2023-09-08T09:48:58.651Z,5.18
2023-09-08T09:51:26.190Z,7.88
2023-09-08T09:53:55.359Z,3.88
2023-09-08T09:56:25.380Z,4.43
2023-09-08T09:58:55.350Z,6.55
2023-09-08T10:01:26.727Z,4.53
2023-09-08T10:06:24.090Z,5.50
2023-09-08T10:08:53.146Z,6.65
2023-09-08T10:11:23.369Z,4.03
2023-09-08T10:13:55.740Z,5.53
2023-09-08T10:16:28.116Z,3.30
2023-09-08T10:18:59.955Z,10.23
2023-09-08T10:21:29.067Z,4.18
2023-09-08T10:24:01.624Z,5.18
2023-09-08T10:26:32.195Z,4.72
2023-09-08T10:29:00.606Z,3.90
2023-09-08T10:31:31.805Z,6.85
2023-09-08T10:34:00.045Z,7.78
2023-09-08T10:36:28.907Z,5.35
2023-09-08T10:38:57.634Z,5.95
2023-09-08T10:41:30.486Z,5.68
2023-09-08T10:43:59.648Z,5.00
2023-09-08T10:46:30.238Z,6.43
2023-09-08T10:49:04.585Z,6.90
2023-09-08T10:51:32.473Z,4.95
2023-09-08T10:54:00.376Z,5.50
2023-09-08T10:56:50.104Z,8.07
2023-09-08T10:59:17.857Z,7.95
2023-09-08T11:01:49.553Z,4.43
2023-09-08T11:04:20.230Z,5.22
2023-09-08T11:06:48.050Z,4.88
2023-09-08T11:09:15.595Z,4.60
2023-09-08T11:11:43.946Z,5.70
2023-09-08T11:14:11.532Z,4.07
2023-09-08T11:16:39.102Z,7.22
2023-09-08T11:19:08.082Z,4.63
2023-09-08T11:21:36.047Z,7.47
2023-09-08T11:24:05.547Z,5.63
2023-09-08T11:26:35.191Z,4.68
2023-09-08T11:29:02.922Z,4.13
2023-09-08T11:31:30.609Z,4.78
2023-09-08T11:34:00.571Z,4.75
2023-09-08T11:36:29.741Z,7.03
2023-09-08T11:38:57.340Z,4.13
2023-09-08T11:41:25.280Z,3.95
2023-09-08T11:43:53.453Z,6.30
2023-09-08T11:46:21.220Z,6.88
2023-09-08T11:48:49.101Z,4.75
2023-09-08T11:51:16.665Z,4.57
2023-09-08T11:53:45.793Z,5.35
2023-09-08T11:56:13.464Z,9.00
2023-09-08T11:58:41.429Z,5.07
2023-09-08T12:01:10.984Z,5.63
2023-09-08T12:03:53.191Z,6.72
2023-09-08T12:06:21.023Z,5.53
2023-09-08T12:08:49.926Z,6.30
2023-09-08T12:11:17.528Z,6.05
2023-09-08T12:13:45.120Z,6.18
2023-09-08T12:16:23.362Z,6.65
2023-09-08T12:18:51.869Z,5.90
2023-09-08T12:21:19.538Z,4.57
2023-09-08T12:23:52.686Z,6.18
2023-09-08T12:26:20.421Z,4.72
2023-09-08T12:28:49.422Z,5.97
2023-09-08T12:31:19.081Z,4.50
2023-09-08T12:33:46.954Z,5.35
2023-09-08T12:36:16.412Z,5.30
2023-09-08T12:38:49.103Z,7.57
2023-09-08T12:41:18.185Z,5.05
2023-09-08T12:43:46.637Z,4.53
2023-09-08T12:46:14.588Z,5.53
2023-09-08T12:48:42.175Z,5.20
2023-09-08T12:51:09.719Z,5.97
2023-09-08T12:53:37.430Z,4.40
2023-09-08T12:56:05.517Z,4.88
2023-09-08T12:58:35.211Z,4.57
2023-09-08T13:01:03.319Z,4.65
2023-09-08T13:03:30.912Z,4.05
2023-09-08T13:05:58.545Z,4.25
2023-09-08T13:08:26.119Z,8.05
2023-09-08T13:10:53.723Z,4.93
2023-09-08T13:13:21.267Z,4.55
2023-09-08T13:15:50.737Z,7.75
2023-09-08T13:18:18.389Z,11.30
2023-09-08T13:20:46.054Z,4.28
2023-09-08T13:23:13.609Z,5.10
2023-09-08T13:25:43.024Z,6.28
2023-09-08T13:28:10.631Z,4.63
2023-09-08T13:30:38.248Z,7.53
2023-09-08T13:33:08.748Z,5.13
2023-09-08T13:35:36.423Z,6.13
2023-09-08T13:38:04.772Z,5.85
2023-09-08T13:40:32.612Z,4.80
2023-09-08T13:43:01.434Z,5.38
2023-09-08T13:45:29.181Z,5.45
2023-09-08T13:47:57.121Z,6.13
2023-09-08T13:50:27.615Z,4.50
2023-09-08T13:52:56.101Z,5.00
2023-09-08T13:57:56.517Z,4.80
2023-09-08T14:00:25.330Z,6.70
2023-09-08T14:02:58.650Z,9.65
2023-09-08T14:05:35.050Z,6.32
2023-09-08T14:08:08.261Z,4.82
2023-09-08T14:10:51.920Z,5.50
2023-09-08T14:13:21.136Z,4.88
2023-09-08T14:15:48.740Z,4.13
2023-09-08T14:18:16.301Z,4.90
2023-09-08T14:20:45.337Z,5.35
2023-09-08T14:23:12.963Z,4.50
2023-09-08T14:25:40.590Z,5.70
2023-09-08T14:28:08.150Z,5.93
2023-09-08T14:30:36.153Z,6.30
2023-09-08T14:33:03.996Z,6.38
2023-09-08T14:35:31.689Z,5.00
2023-09-08T14:38:00.667Z,10.50
2023-09-08T14:40:28.286Z,4.80
2023-09-08T14:42:55.832Z,4.70
2023-09-08T14:45:23.388Z,5.47
2023-09-08T14:47:51.001Z,5.60
2023-09-08T14:50:18.784Z,8.68
2023-09-08T14:52:46.547Z,6.38
2023-09-08T14:55:15.637Z,5.60
2023-09-08T14:57:43.403Z,6.57
2023-09-08T15:00:12.038Z,6.30
2023-09-08T15:02:39.849Z,5.68
2023-09-08T15:05:07.907Z,3.42
2023-09-08T15:07:34.522Z,5.20
2023-09-08T15:10:02.015Z,5.72
2023-09-08T15:12:32.337Z,5.38
2023-09-08T15:14:59.892Z,6.20
2023-09-08T15:17:27.487Z,6.40
2023-09-08T15:19:54.997Z,8.10
2023-09-08T15:22:22.507Z,4.97
2023-09-08T15:24:50.048Z,7.85
2023-09-08T15:27:18.051Z,6.43
2023-09-08T15:29:46.973Z,5.05
2023-09-08T15:32:14.630Z,5.07
2023-09-08T15:34:44.251Z,5.90
2023-09-08T15:37:11.842Z,6.07
2023-09-08T15:39:39.471Z,6.10
2023-09-08T15:42:07.562Z,4.30
2023-09-08T15:44:35.141Z,4.35
2023-09-08T15:47:04.367Z,5.40
2023-09-08T15:49:31.973Z,4.82
2023-09-08T15:52:08.838Z,5.35
2023-09-08T15:54:43.192Z,4.82
2023-09-08T15:57:11.113Z,7.80
2023-09-08T15:59:40.121Z,4.13
2023-09-08T16:02:09.391Z,5.47
2023-09-08T16:04:37.258Z,7.78
2023-09-08T16:07:05.401Z,7.03
2023-09-08T16:09:33.033Z,6.20
2023-09-08T16:12:00.592Z,5.85
2023-09-08T16:14:28.225Z,5.43
2023-09-08T16:16:55.844Z,5.85
2023-09-08T16:19:27.480Z,7.28
2023-09-08T16:21:55.001Z,6.78
2023-09-08T16:24:22.562Z,7.20
2023-09-08T16:26:50.309Z,4.38
2023-09-08T16:29:18.235Z,5.95
2023-09-08T16:31:45.803Z,5.25
2023-09-08T16:34:13.320Z,7.07
2023-09-08T16:36:43.045Z,6.10
2023-09-08T16:39:10.646Z,4.90
2023-09-08T16:41:38.362Z,4.40
2023-09-08T16:44:06.302Z,6.03
2023-09-08T16:46:33.852Z,5.57
2023-09-08T16:49:01.387Z,5.45
2023-09-08T16:51:28.927Z,8.18
2023-09-08T16:53:59.560Z,8.15
2023-09-08T16:56:28.205Z,5.10
2023-09-08T16:58:55.764Z,6.78
2023-09-08T17:01:23.379Z,6.03
2023-09-08T17:03:51.116Z,5.25
2023-09-08T17:06:18.813Z,4.55
2023-09-08T17:08:46.443Z,7.25
2023-09-08T17:11:15.456Z,4.40
2023-09-08T17:13:43.022Z,5.28
2023-09-08T17:16:10.587Z,4.80
2023-09-08T17:18:38.246Z,7.13
2023-09-08T17:21:06.288Z,4.85
2023-09-08T17:23:33.971Z,4.95
2023-09-08T17:26:02.125Z,7.75
2023-09-08T17:28:32.352Z,5.40
2023-09-08T17:31:00.905Z,9.38
2023-09-08T17:33:28.784Z,7.32
2023-09-08T17:35:56.907Z,5.68
2023-09-08T17:38:24.902Z,5.82
2023-09-08T17:40:52.562Z,7.10
2023-09-08T17:43:20.221Z,5.18
2023-09-08T17:45:49.359Z,8.80
2023-09-08T17:48:16.975Z,5.28
2023-09-08T17:50:44.566Z,6.40
2023-09-08T17:53:12.175Z,9.73
2023-09-08T17:55:39.794Z,7.25
2023-09-08T17:58:07.318Z,8.55
2023-09-08T18:00:34.882Z,6.18
2023-09-08T18:03:04.005Z,5.13
2023-09-08T18:05:31.712Z,5.72
2023-09-08T18:07:59.285Z,5.50
2023-09-08T18:10:26.984Z,9.23
2023-09-08T18:12:54.827Z,8.25
2023-09-08T18:15:22.395Z,5.75
2023-09-08T18:17:49.960Z,12.45
2023-09-08T18:20:19.722Z,8.35
2023-09-08T18:22:47.317Z,8.35
2023-09-08T18:25:15.172Z,8.32
2023-09-08T18:27:45.748Z,7.22
2023-09-08T18:30:13.899Z,7.70
2023-09-08T18:32:42.672Z,7.20
2023-09-08T18:35:10.668Z,9.43
2023-09-08T18:37:39.696Z,7.78
2023-09-08T18:40:11.137Z,8.20
2023-09-08T18:42:39.824Z,6.78
2023-09-08T18:45:08.455Z,8.60
2023-09-08T18:47:36.165Z,8.85
2023-09-08T18:50:05.483Z,7.47
2023-09-08T18:52:33.083Z,8.40
2023-09-08T18:55:02.736Z,9.80
2023-09-08T18:57:30.805Z,9.75
2023-09-08T18:59:58.865Z,9.85
2023-09-08T19:02:27.187Z,8.57
2023-09-08T19:05:27.191Z,8.13
2023-09-08T19:07:55.225Z,7.15
2023-09-08T19:10:36.777Z,7.97
2023-09-08T19:38:33.004Z,9.48
2023-09-08T19:42:05.493Z,10.50
2023-09-08T19:45:43.795Z,10.60
2023-09-08T19:49:09.163Z,9.02
2023-09-08T19:52:10.751Z,10.48
2023-09-08T19:55:36.265Z,11.65
2023-09-08T20:01:32.533Z,8.05
2023-09-08T20:04:42.897Z,9.35
2023-09-08T20:07:29.851Z,9.65
2023-09-08T20:10:05.730Z,8.25
2023-09-08T21:15:40.579Z,11.35
2023-09-08T21:18:08.875Z,10.20
2023-09-08T21:20:36.809Z,9.20
2023-09-08T21:23:05.014Z,9.93
2023-09-08T21:25:34.059Z,11.52
2023-09-08T21:28:04.078Z,12.45
2023-09-08T21:30:34.024Z,8.98
2023-09-08T21:33:05.409Z,10.10
2023-09-08T21:35:38.337Z,9.85
2023-09-08T21:38:10.049Z,9.18
2023-09-08T21:40:42.169Z,10.80
2023-09-08T21:45:43.971Z,8.77
2023-09-08T21:48:19.224Z,8.27
2023-09-08T21:50:50.898Z,8.48
2023-09-08T21:53:20.332Z,8.43
2023-09-08T21:55:49.828Z,9.38
2023-09-08T21:58:21.481Z,8.20
2023-09-08T22:00:50.537Z,9.23
2023-09-08T22:03:22.101Z,10.10
2023-09-08T22:05:51.364Z,10.63
2023-09-08T22:08:20.398Z,10.55
2023-09-08T22:10:49.205Z,10.07
2023-09-08T22:13:18.289Z,9.75
2023-09-08T22:15:47.335Z,9.15
2023-09-08T22:18:16.048Z,11.45
2023-09-08T22:20:46.988Z,8.02
2023-09-08T22:23:15.338Z,7.85
2023-09-08T22:25:43.708Z,8.07
2023-09-08T22:28:14.430Z,7.70
2023-09-08T22:30:43.511Z,7.55
2023-09-08T22:33:12.697Z,9.98
2023-09-08T22:35:42.019Z,8.55
2023-09-08T22:38:12.250Z,8.95
2023-09-08T22:40:42.647Z,8.32
2023-09-08T22:43:12.767Z,7.90
2023-09-08T22:45:45.173Z,8.80
2023-09-08T22:50:43.542Z,9.23
2023-09-08T22:53:17.606Z,8.63
2023-09-08T22:55:46.651Z,7.72
2023-09-08T22:58:16.987Z,10.13
2023-09-08T23:00:45.825Z,7.95
2023-09-08T23:03:14.753Z,8.75
2023-09-08T23:05:43.989Z,10.68
2023-09-08T23:08:14.334Z,9.18
2023-09-08T23:10:42.915Z,9.88
2023-09-08T23:13:11.497Z,8.63
2023-09-08T23:15:42.584Z,10.25
2023-09-08T23:18:11.320Z,8.30
2023-09-08T23:20:43.382Z,9.55
2023-09-08T23:23:12.024Z,9.68
2023-09-08T23:25:42.659Z,9.65
2023-09-08T23:28:11.629Z,9.55
2023-09-08T23:30:39.824Z,9.70
2023-09-08T23:33:08.723Z,10.23
2023-09-08T23:35:37.556Z,7.90
2023-09-08T23:38:06.421Z,9.63
2023-09-08T23:40:39.209Z,7.95
2023-09-08T23:43:14.323Z,10.43
2023-09-08T23:45:46.623Z,8.07
2023-09-08T23:48:15.793Z,9.35
2023-09-08T23:50:54.003Z,7.72
2023-09-08T23:53:23.081Z,10.35
2023-09-08T23:55:52.339Z,8.25
2023-09-08T23:58:23.676Z,8.32
